createdAt,value
2023-05-19T00:00:13.576Z,70.05
2023-05-19T00:00:47.811Z,70.26
2023-05-19T00:01:18.448Z,70.05
2023-05-19T00:01:50.898Z,69.95
2023-05-19T00:02:23.415Z,70.15
2023-05-19T00:02:55.924Z,69.84
2023-05-19T00:03:28.336Z,69.84
2023-05-19T00:04:00.682Z,69.84
2023-05-19T00:04:33.176Z,69.84
2023-05-19T00:05:05.606Z,70.36
2023-05-19T00:05:38.106Z,70.15
2023-05-19T00:06:10.673Z,70.05
2023-05-19T00:06:43.078Z,69.95
2023-05-19T00:07:15.506Z,70.05
2023-05-19T00:07:48.038Z,70.15
2023-05-19T00:08:20.495Z,70.36
2023-05-19T00:08:52.964Z,70.46
2023-05-19T00:09:25.408Z,70.67
2023-05-19T00:09:57.932Z,70.46
2023-05-19T00:10:30.635Z,70.56
2023-05-19T00:11:02.891Z,70.67
2023-05-19T00:11:35.344Z,70.67
2023-05-19T00:12:07.779Z,70.36
2023-05-19T00:12:40.232Z,70.67
2023-05-19T00:13:12.689Z,70.46
2023-05-19T00:13:45.109Z,70.46
2023-05-19T00:14:17.533Z,70.56
2023-05-19T00:14:50.013Z,70.56
2023-05-19T00:15:22.457Z,70.87
2023-05-19T00:15:54.971Z,70.97
2023-05-19T00:16:27.521Z,70.87
2023-05-19T00:16:59.857Z,70.77
2023-05-19T00:17:32.328Z,70.87
2023-05-19T00:18:04.793Z,70.87
2023-05-19T00:18:37.299Z,70.87
2023-05-19T00:19:09.924Z,70.77
2023-05-19T00:19:42.196Z,71.08
2023-05-19T00:20:14.679Z,71.08
2023-05-19T00:20:47.165Z,71.28
2023-05-19T00:21:19.630Z,71.18
2023-05-19T00:21:52.090Z,70.97
2023-05-19T00:22:24.634Z,70.87
2023-05-19T00:22:57.075Z,70.97
2023-05-19T00:23:29.535Z,70.97
2023-05-19T00:24:02.001Z,71.08
2023-05-19T00:24:34.433Z,71.08
2023-05-19T00:25:07.133Z,71.39
2023-05-19T00:25:39.626Z,71.39
2023-05-19T00:26:12.098Z,71.28
2023-05-19T00:26:44.597Z,71.28
2023-05-19T00:27:17.072Z,71.28
2023-05-19T00:27:49.525Z,71.28
2023-05-19T00:28:22.025Z,71.28
2023-05-19T00:28:54.452Z,71.11
2023-05-19T00:29:26.966Z,70.70
2023-05-19T00:29:59.500Z,70.50
2023-05-19T00:30:32.213Z,70.70
2023-05-19T00:31:04.403Z,71.11
2023-05-19T00:31:36.869Z,70.90
2023-05-19T00:32:09.532Z,70.80
2023-05-19T00:32:41.852Z,71.01
2023-05-19T00:33:14.318Z,71.04
2023-05-19T00:33:46.754Z,71.86
2023-05-19T00:34:19.245Z,72.48
2023-05-19T00:34:51.776Z,72.48
2023-05-19T00:35:24.319Z,73.13
2023-05-19T00:35:56.787Z,72.82
2023-05-19T00:36:29.276Z,73.02
2023-05-19T00:37:01.740Z,73.13
2023-05-19T00:37:34.301Z,73.02
2023-05-19T00:38:06.901Z,72.92
2023-05-19T00:38:39.350Z,72.61
2023-05-19T00:39:11.782Z,72.61
2023-05-19T00:39:44.233Z,72.51
2023-05-19T00:40:16.690Z,72.51
2023-05-19T00:40:49.167Z,72.31
2023-05-19T00:41:21.658Z,72.51
2023-05-19T00:41:54.105Z,72.82
2023-05-19T00:42:26.643Z,73.16
2023-05-19T00:42:59.152Z,73.33
2023-05-19T00:43:31.650Z,73.36
2023-05-19T00:44:04.131Z,73.33
2023-05-19T00:44:36.589Z,73.64
2023-05-19T00:45:09.090Z,73.44
2023-05-19T00:45:41.629Z,73.13
2023-05-19T00:46:14.140Z,72.82
2023-05-19T00:46:46.701Z,73.27
2023-05-19T00:47:19.046Z,73.98
2023-05-19T00:47:51.573Z,73.78
2023-05-19T00:48:23.988Z,73.47
2023-05-19T00:48:56.547Z,73.27
2023-05-19T00:49:28.973Z,73.16
2023-05-19T00:50:01.439Z,73.27
2023-05-19T00:50:34.180Z,73.16
2023-05-19T00:51:14.047Z,72.75
2023-05-19T00:51:46.474Z,73.78
2023-05-19T00:52:18.929Z,73.36
2023-05-19T00:52:51.362Z,73.27
2023-05-19T00:53:23.822Z,73.47
2023-05-19T00:53:56.264Z,73.57
2023-05-19T00:54:28.689Z,73.81
2023-05-19T00:55:01.148Z,73.61
2023-05-19T00:55:33.599Z,73.81
2023-05-19T00:56:06.068Z,73.81
2023-05-19T00:56:38.518Z,74.22
2023-05-19T00:57:10.934Z,73.91
2023-05-19T00:57:43.381Z,73.71
2023-05-19T00:58:15.857Z,74.22
2023-05-19T00:58:48.349Z,74.95
2023-05-19T00:59:20.796Z,75.04
2023-05-19T00:59:53.199Z,75.39
2023-05-19T01:00:25.654Z,75.18
2023-05-19T01:00:58.166Z,75.80
2023-05-19T01:01:30.599Z,76.31
2023-05-19T01:02:03.069Z,75.90
2023-05-19T01:02:35.634Z,75.70
2023-05-19T01:03:08.110Z,76.21
2023-05-19T01:03:40.575Z,76.76
2023-05-19T01:04:12.960Z,76.97
2023-05-19T01:04:45.405Z,77.07
2023-05-19T01:05:24.936Z,76.56
2023-05-19T01:05:57.453Z,76.66
2023-05-19T01:06:29.859Z,76.45
2023-05-19T01:07:02.458Z,76.25
2023-05-19T01:07:34.775Z,76.25
2023-05-19T01:08:07.240Z,76.25
2023-05-19T01:08:39.670Z,76.66
2023-05-19T01:09:12.110Z,76.86
2023-05-19T01:09:44.554Z,76.45
2023-05-19T01:10:17.030Z,76.45
2023-05-19T01:10:49.452Z,76.35
2023-05-19T01:11:21.883Z,76.14
2023-05-19T01:11:54.369Z,75.84
2023-05-19T01:12:26.841Z,75.84
2023-05-19T01:12:59.281Z,75.73
2023-05-19T01:13:31.729Z,76.56
2023-05-19T01:14:04.176Z,76.97
2023-05-19T01:14:36.592Z,77.38
2023-05-19T01:15:09.028Z,78.14
2023-05-19T01:15:41.474Z,77.93
2023-05-19T01:16:13.968Z,77.83
2023-05-19T01:16:46.466Z,78.03
2023-05-19T01:17:18.802Z,77.62
2023-05-19T01:17:51.286Z,77.00
2023-05-19T01:18:23.674Z,76.70
2023-05-19T01:18:56.324Z,77.31
2023-05-19T01:19:28.535Z,77.62
2023-05-19T01:20:01.007Z,77.04
2023-05-19T01:20:33.645Z,77.04
2023-05-19T01:21:05.944Z,77.66
2023-05-19T01:21:38.377Z,78.17
2023-05-19T01:22:10.841Z,78.07
2023-05-19T01:22:43.350Z,77.66
2023-05-19T01:23:15.801Z,77.35
2023-05-19T01:23:48.222Z,77.25
2023-05-19T01:24:20.690Z,77.14
2023-05-19T01:24:53.069Z,77.35
2023-05-19T01:25:25.554Z,77.66
2023-05-19T01:25:57.977Z,77.55
2023-05-19T01:26:30.415Z,77.69
2023-05-19T01:27:02.836Z,78.00
2023-05-19T01:27:35.255Z,78.72
2023-05-19T01:28:07.677Z,79.24
2023-05-19T01:28:40.140Z,79.14
2023-05-19T01:29:12.542Z,79.24
2023-05-19T01:29:44.966Z,79.65
2023-05-19T01:30:17.405Z,79.75
2023-05-19T01:30:49.839Z,79.65
2023-05-19T01:31:22.319Z,79.44
2023-05-19T01:31:54.785Z,79.55
2023-05-19T01:32:27.168Z,79.14
2023-05-19T01:32:59.637Z,79.24
2023-05-19T01:33:32.015Z,79.24
2023-05-19T01:34:04.469Z,79.24
2023-05-19T01:34:36.904Z,79.65
2023-05-19T01:35:09.317Z,79.55
2023-05-19T01:35:41.754Z,79.17
2023-05-19T01:36:14.239Z,78.97
2023-05-19T01:36:46.673Z,78.97
2023-05-19T01:37:19.134Z,78.55
2023-05-19T01:37:51.604Z,78.55
2023-05-19T01:38:24.063Z,78.34
2023-05-19T01:38:56.515Z,78.14
2023-05-19T01:39:28.967Z,78.14
2023-05-19T01:40:01.410Z,78.14
2023-05-19T01:40:34.037Z,77.83
2023-05-19T01:41:06.332Z,78.86
2023-05-19T01:41:38.753Z,79.79
2023-05-19T01:42:11.169Z,79.58
2023-05-19T01:42:43.593Z,79.48
2023-05-19T01:43:16.002Z,80.10
2023-05-19T01:43:48.448Z,80.24
2023-05-19T01:44:20.859Z,80.34
2023-05-19T01:44:53.300Z,80.76
2023-05-19T01:45:25.786Z,80.34
2023-05-19T01:45:58.222Z,80.14
2023-05-19T01:46:30.739Z,79.83
2023-05-19T01:47:03.072Z,79.52
2023-05-19T01:47:35.527Z,79.31
2023-05-19T01:48:10.100Z,79.31
2023-05-19T01:48:40.478Z,79.41
2023-05-19T01:49:12.918Z,79.52
2023-05-19T01:49:45.388Z,79.62
2023-05-19T01:50:17.845Z,79.93
2023-05-19T01:50:50.277Z,80.14
2023-05-19T01:51:22.727Z,80.34
2023-05-19T01:51:55.179Z,80.34
2023-05-19T01:52:27.613Z,80.65
2023-05-19T01:53:00.046Z,80.65
2023-05-19T01:53:32.498Z,80.44
2023-05-19T01:54:04.925Z,80.44
2023-05-19T01:54:37.367Z,80.65
2023-05-19T01:55:09.818Z,80.55
2023-05-19T01:55:42.211Z,80.65
2023-05-19T01:56:14.657Z,80.65
2023-05-19T01:56:47.134Z,80.44
2023-05-19T01:57:19.528Z,80.76
2023-05-19T01:57:51.986Z,81.27
2023-05-19T01:58:24.445Z,81.48
2023-05-19T01:58:56.877Z,80.96
2023-05-19T01:59:29.323Z,80.65
2023-05-19T02:00:01.762Z,80.44
2023-05-19T02:00:34.369Z,80.65
2023-05-19T02:01:06.655Z,82.20
2023-05-19T02:01:39.129Z,83.23
2023-05-19T02:02:11.530Z,83.54
2023-05-19T02:02:44.025Z,83.23
2023-05-19T02:03:16.417Z,82.82
2023-05-19T02:03:48.845Z,83.23
2023-05-19T02:04:21.267Z,83.89
2023-05-19T02:04:53.746Z,84.41
2023-05-19T02:05:26.154Z,84.72
2023-05-19T02:05:58.552Z,84.81
2023-05-19T02:06:30.990Z,84.30
2023-05-19T02:07:03.453Z,83.99
2023-05-19T02:07:35.906Z,83.33
2023-05-19T02:08:08.375Z,82.92
2023-05-19T02:08:40.815Z,83.13
2023-05-19T02:09:13.267Z,83.44
2023-05-19T02:09:45.654Z,83.23
2023-05-19T02:10:18.106Z,82.92
2023-05-19T02:10:50.590Z,82.40
2023-05-19T02:11:23.134Z,82.40
2023-05-19T02:11:55.536Z,82.20
2023-05-19T02:12:27.971Z,81.99
2023-05-19T02:13:00.431Z,81.79
2023-05-19T02:13:32.896Z,81.82
2023-05-19T02:14:05.435Z,81.62
2023-05-19T02:14:37.907Z,82.03
2023-05-19T02:15:10.461Z,82.20
2023-05-19T02:15:42.992Z,82.55
2023-05-19T02:16:15.395Z,82.55
2023-05-19T02:16:47.791Z,82.75
2023-05-19T02:17:20.270Z,83.06
2023-05-19T02:17:52.735Z,82.65
2023-05-19T02:18:25.147Z,82.55
2023-05-19T02:18:57.642Z,82.45
2023-05-19T02:19:30.059Z,82.55
2023-05-19T02:20:02.448Z,82.86
2023-05-19T02:20:35.055Z,82.75
2023-05-19T02:21:07.315Z,82.86
2023-05-19T02:21:39.742Z,82.96
2023-05-19T02:22:12.184Z,82.65
2023-05-19T02:22:44.617Z,82.65
2023-05-19T02:23:17.027Z,82.86
2023-05-19T02:23:49.454Z,83.75
2023-05-19T02:24:21.880Z,83.33
2023-05-19T02:24:54.312Z,83.23
2023-05-19T02:25:26.741Z,83.13
2023-05-19T02:25:59.164Z,83.33
2023-05-19T02:26:31.618Z,83.75
2023-05-19T02:27:04.075Z,82.92
2023-05-19T02:27:36.516Z,82.92
2023-05-19T02:28:08.945Z,83.23
2023-05-19T02:28:41.385Z,83.23
2023-05-19T02:29:13.832Z,83.44
2023-05-19T02:29:46.320Z,83.23
2023-05-19T02:30:18.761Z,83.13
2023-05-19T02:30:51.262Z,82.82
2023-05-19T02:31:23.704Z,83.13
2023-05-19T02:31:56.154Z,83.13
2023-05-19T02:32:28.673Z,83.03
2023-05-19T02:33:01.256Z,82.55
2023-05-19T02:33:33.655Z,82.75
2023-05-19T02:34:06.067Z,82.96
2023-05-19T02:34:38.505Z,83.78
2023-05-19T02:35:10.950Z,83.27
2023-05-19T02:35:43.390Z,84.20
2023-05-19T02:36:15.837Z,84.61
2023-05-19T02:36:48.288Z,84.81
2023-05-19T02:37:20.748Z,85.85
2023-05-19T02:37:53.204Z,86.47
2023-05-19T02:38:25.653Z,86.78
2023-05-19T02:38:58.059Z,87.08
2023-05-19T02:39:30.507Z,86.88
2023-05-19T02:40:02.957Z,86.88
2023-05-19T02:40:35.410Z,86.78
2023-05-19T02:41:07.882Z,86.88
2023-05-19T02:41:40.357Z,87.08
2023-05-19T02:42:12.794Z,87.40
2023-05-19T02:42:45.268Z,87.65
2023-05-19T02:43:17.712Z,87.54
2023-05-19T02:43:50.125Z,87.23
2023-05-19T02:44:22.549Z,86.61
2023-05-19T02:44:55.026Z,86.30
2023-05-19T02:45:27.475Z,86.61
2023-05-19T02:46:00.011Z,86.82
2023-05-19T02:46:32.559Z,87.02
2023-05-19T02:47:04.851Z,87.02
2023-05-19T02:47:37.391Z,87.13
2023-05-19T02:48:09.762Z,86.61
2023-05-19T02:48:42.188Z,86.51
2023-05-19T02:49:14.647Z,86.10
2023-05-19T02:49:47.060Z,85.78
2023-05-19T02:50:19.498Z,85.78
2023-05-19T02:50:52.010Z,86.61
2023-05-19T02:51:24.454Z,87.13
2023-05-19T02:51:56.922Z,87.23
2023-05-19T02:52:29.365Z,87.13
2023-05-19T02:53:01.793Z,86.92
2023-05-19T02:53:34.212Z,86.92
2023-05-19T02:54:06.690Z,86.82
2023-05-19T02:54:39.126Z,86.71
2023-05-19T02:55:11.585Z,86.10
2023-05-19T02:55:44.030Z,85.99
2023-05-19T02:56:16.490Z,85.99
2023-05-19T02:56:48.934Z,86.51
2023-05-19T02:57:21.351Z,87.02
2023-05-19T02:57:53.755Z,87.13
2023-05-19T02:58:26.215Z,87.13
2023-05-19T02:58:58.704Z,86.82
2023-05-19T02:59:31.135Z,86.82
2023-05-19T03:00:03.651Z,86.71
2023-05-19T03:00:36.040Z,86.82
2023-05-19T03:01:08.487Z,87.02
2023-05-19T03:01:40.929Z,86.68
2023-05-19T03:02:13.419Z,86.26
2023-05-19T03:02:45.834Z,85.89
2023-05-19T03:03:18.346Z,85.68
2023-05-19T03:03:50.831Z,86.30
2023-05-19T03:04:23.168Z,86.10
2023-05-19T03:04:55.635Z,85.99
2023-05-19T03:05:28.062Z,85.89
2023-05-19T03:06:00.555Z,85.99
2023-05-19T03:06:32.977Z,86.51
2023-05-19T03:07:05.431Z,86.30
2023-05-19T03:07:37.856Z,86.51
2023-05-19T03:08:10.335Z,86.51
2023-05-19T03:08:42.763Z,86.41
2023-05-19T03:09:15.277Z,86.20
2023-05-19T03:09:47.685Z,85.89
2023-05-19T03:10:20.138Z,85.52
2023-05-19T03:10:52.532Z,85.52
2023-05-19T03:11:25.020Z,85.83
2023-05-19T03:11:57.491Z,86.24
2023-05-19T03:12:29.907Z,86.76
2023-05-19T03:13:02.343Z,86.96
2023-05-19T03:13:34.761Z,87.17
2023-05-19T03:14:07.272Z,87.23
2023-05-19T03:14:39.720Z,87.23
2023-05-19T03:15:12.151Z,87.27
2023-05-19T03:15:44.589Z,87.37
2023-05-19T03:16:17.044Z,87.89
2023-05-19T03:16:49.592Z,88.10
2023-05-19T03:17:22.067Z,87.99
2023-05-19T03:17:54.476Z,87.89
2023-05-19T03:18:26.896Z,88.10
2023-05-19T03:18:59.259Z,87.68
2023-05-19T03:19:31.673Z,87.99
2023-05-19T03:20:04.136Z,88.20
2023-05-19T03:20:36.573Z,88.51
2023-05-19T03:21:08.990Z,88.41
2023-05-19T03:21:41.407Z,87.99
2023-05-19T03:22:13.844Z,87.68
2023-05-19T03:22:46.292Z,87.48
2023-05-19T03:23:18.833Z,87.17
2023-05-19T03:23:51.256Z,87.37
2023-05-19T03:24:23.706Z,87.48
2023-05-19T03:24:56.130Z,87.48
2023-05-19T03:25:28.565Z,87.41
2023-05-19T03:26:01.032Z,87.21
2023-05-19T03:26:33.505Z,86.90
2023-05-19T03:27:05.961Z,87.41
2023-05-19T03:27:38.407Z,87.41
2023-05-19T03:28:10.816Z,87.52
2023-05-19T03:28:43.245Z,87.52
2023-05-19T03:29:15.667Z,87.62
2023-05-19T03:29:48.254Z,87.62
2023-05-19T03:30:20.912Z,88.20
2023-05-19T03:30:53.390Z,88.71
2023-05-19T03:31:25.854Z,88.82
2023-05-19T03:31:58.319Z,89.03
2023-05-19T03:32:30.702Z,88.51
2023-05-19T03:33:03.250Z,88.31
2023-05-19T03:33:35.599Z,88.20
2023-05-19T03:34:08.024Z,88.10
2023-05-19T03:34:40.431Z,88.20
2023-05-19T03:35:12.844Z,88.20
2023-05-19T03:35:45.270Z,87.89
2023-05-19T03:36:17.748Z,88.16
2023-05-19T03:36:50.208Z,88.26
2023-05-19T03:37:22.679Z,87.95
2023-05-19T03:37:55.153Z,87.54
2023-05-19T03:38:27.557Z,87.65
2023-05-19T03:38:59.969Z,87.65
2023-05-19T03:39:32.394Z,87.74
2023-05-19T03:40:04.816Z,87.65
2023-05-19T03:40:37.326Z,87.65
2023-05-19T03:41:09.806Z,87.54
2023-05-19T03:41:42.285Z,87.34
2023-05-19T03:42:14.733Z,87.54
2023-05-19T03:42:47.171Z,87.34
2023-05-19T03:43:19.600Z,86.92
2023-05-19T03:43:52.016Z,86.82
2023-05-19T03:44:24.520Z,86.82
2023-05-19T03:44:56.934Z,86.82
2023-05-19T03:45:29.448Z,86.61
2023-05-19T03:46:01.892Z,86.61
2023-05-19T03:46:34.308Z,87.02
2023-05-19T03:47:06.705Z,87.74
2023-05-19T03:47:39.160Z,87.54
2023-05-19T03:48:11.603Z,87.54
2023-05-19T03:48:44.053Z,87.34
2023-05-19T03:49:16.506Z,87.23
2023-05-19T03:49:48.916Z,87.13
2023-05-19T03:50:21.333Z,86.78
2023-05-19T03:50:53.802Z,87.02
2023-05-19T03:51:26.262Z,87.60
2023-05-19T03:51:58.728Z,87.50
2023-05-19T03:52:31.170Z,87.40
2023-05-19T03:53:03.604Z,87.40
2023-05-19T03:53:36.019Z,87.08
2023-05-19T03:54:08.433Z,86.98
2023-05-19T03:54:40.852Z,86.78
2023-05-19T03:55:13.285Z,86.88
2023-05-19T03:55:45.730Z,86.98
2023-05-19T03:56:18.189Z,86.88
2023-05-19T03:56:50.558Z,87.19
2023-05-19T03:57:23.004Z,87.40
2023-05-19T03:57:55.474Z,87.60
2023-05-19T03:58:27.895Z,87.40
2023-05-19T03:59:00.339Z,86.94
2023-05-19T03:59:32.781Z,87.15
2023-05-19T04:00:05.246Z,86.94
2023-05-19T04:00:37.678Z,86.84
2023-05-19T04:01:10.142Z,86.63
2023-05-19T04:01:42.576Z,86.53
2023-05-19T04:02:16.501Z,86.22
2023-05-19T04:02:47.492Z,85.97
2023-05-19T04:03:20.008Z,86.08
2023-05-19T04:03:52.345Z,85.77
2023-05-19T04:04:24.870Z,85.57
2023-05-19T04:04:57.283Z,85.67
2023-05-19T04:05:29.672Z,85.77
2023-05-19T04:06:02.123Z,85.87
2023-05-19T04:06:34.561Z,85.67
2023-05-19T04:07:07.006Z,85.25
2023-05-19T04:07:39.425Z,85.15
2023-05-19T04:08:11.851Z,85.36
2023-05-19T04:08:44.284Z,85.57
2023-05-19T04:09:16.718Z,85.15
2023-05-19T04:09:49.145Z,85.05
2023-05-19T04:10:21.590Z,84.94
2023-05-19T04:10:54.031Z,85.57
2023-05-19T04:11:26.466Z,86.08
2023-05-19T04:11:58.898Z,86.08
2023-05-19T04:12:31.336Z,85.97
2023-05-19T04:13:03.801Z,86.08
2023-05-19T04:13:36.242Z,85.87
2023-05-19T04:14:08.706Z,85.77
2023-05-19T04:14:41.097Z,85.67
2023-05-19T04:15:13.553Z,85.57
2023-05-19T04:15:46.094Z,85.67
2023-05-19T04:16:18.513Z,85.67
2023-05-19T04:16:50.907Z,85.77
2023-05-19T04:17:23.403Z,86.18
2023-05-19T04:17:55.875Z,85.97
2023-05-19T04:18:29.017Z,85.67
2023-05-19T04:19:00.986Z,85.77
2023-05-19T04:19:33.349Z,85.46
2023-05-19T04:20:05.793Z,85.31
2023-05-19T04:20:38.239Z,85.31
2023-05-19T04:21:10.645Z,85.22
2023-05-19T04:21:43.068Z,84.91
2023-05-19T04:22:15.516Z,84.91
2023-05-19T04:22:47.986Z,84.70
2023-05-19T04:23:20.434Z,84.59
2023-05-19T04:23:52.882Z,84.80
2023-05-19T04:24:25.301Z,84.59
2023-05-19T04:24:57.719Z,84.59
2023-05-19T04:25:30.142Z,84.70
2023-05-19T04:26:02.562Z,84.56
2023-05-19T04:26:34.996Z,84.25
2023-05-19T04:27:07.448Z,84.05
2023-05-19T04:27:39.904Z,83.84
2023-05-19T04:28:12.393Z,84.25
2023-05-19T04:28:44.843Z,84.66
2023-05-19T04:29:17.272Z,84.87
2023-05-19T04:29:49.756Z,85.11
2023-05-19T04:30:22.458Z,85.01
2023-05-19T04:30:54.664Z,84.59
2023-05-19T04:31:27.145Z,84.29
2023-05-19T04:31:59.504Z,84.80
2023-05-19T04:32:31.928Z,84.91
2023-05-19T04:33:04.402Z,84.70
2023-05-19T04:33:36.815Z,84.14
2023-05-19T04:34:09.244Z,83.84
2023-05-19T04:34:41.688Z,83.63
2023-05-19T04:35:14.200Z,83.63
2023-05-19T04:35:46.641Z,83.53
2023-05-19T04:36:19.111Z,83.67
2023-05-19T04:36:53.196Z,83.56
2023-05-19T04:37:24.013Z,83.77
2023-05-19T04:37:56.450Z,84.25
2023-05-19T04:38:28.906Z,84.19
2023-05-19T04:39:01.322Z,84.08
2023-05-19T04:39:33.746Z,84.19
2023-05-19T04:40:06.204Z,84.19
2023-05-19T04:40:38.661Z,84.39
2023-05-19T04:41:11.127Z,84.80
2023-05-19T04:41:43.549Z,85.01
2023-05-19T04:42:15.996Z,85.31
2023-05-19T04:42:48.427Z,85.31
2023-05-19T04:43:20.866Z,85.42
2023-05-19T04:43:53.353Z,85.22
2023-05-19T04:44:25.828Z,84.80
2023-05-19T04:44:58.305Z,84.66
2023-05-19T04:45:30.746Z,84.97
2023-05-19T04:46:03.445Z,84.77
2023-05-19T04:46:35.927Z,84.31
2023-05-19T04:47:08.404Z,84.21
2023-05-19T04:47:40.784Z,84.21
2023-05-19T04:48:13.210Z,84.00
2023-05-19T04:48:45.630Z,83.90
2023-05-19T04:49:18.239Z,83.80
2023-05-19T04:49:50.652Z,83.45
2023-05-19T04:50:23.110Z,83.35
2023-05-19T04:50:55.567Z,83.65
2023-05-19T04:51:29.234Z,83.97
2023-05-19T04:52:00.471Z,83.86
2023-05-19T04:52:32.919Z,83.86
2023-05-19T04:53:05.391Z,83.65
2023-05-19T04:53:37.870Z,83.45
2023-05-19T04:54:10.356Z,83.25
2023-05-19T04:54:42.814Z,82.90
2023-05-19T04:55:15.366Z,83.11
2023-05-19T04:55:47.882Z,83.31
2023-05-19T04:56:20.301Z,83.41
2023-05-19T04:56:52.757Z,83.31
2023-05-19T04:57:25.314Z,83.11
2023-05-19T04:57:57.791Z,83.00
2023-05-19T04:58:30.266Z,82.90
2023-05-19T04:59:02.696Z,82.69
2023-05-19T04:59:35.138Z,82.48
2023-05-19T05:00:07.682Z,82.28
2023-05-19T05:00:40.157Z,82.69
2023-05-19T05:01:12.600Z,82.90
2023-05-19T05:01:45.067Z,83.17
2023-05-19T05:02:17.582Z,83.06
2023-05-19T05:02:50.017Z,82.65
2023-05-19T05:03:22.506Z,82.45
2023-05-19T05:03:54.865Z,82.24
2023-05-19T05:04:27.279Z,82.34
2023-05-19T05:04:59.741Z,82.45
2023-05-19T05:05:32.212Z,82.24
2023-05-19T05:06:04.679Z,82.04
2023-05-19T05:06:37.077Z,81.48
2023-05-19T05:07:09.579Z,81.07
2023-05-19T05:07:42.077Z,81.28
2023-05-19T05:08:14.513Z,81.59
2023-05-19T05:08:47.102Z,81.07
2023-05-19T05:09:19.715Z,80.77
2023-05-19T05:09:52.193Z,80.42
2023-05-19T05:10:24.627Z,80.32
2023-05-19T05:10:57.078Z,80.52
2023-05-19T05:11:29.676Z,80.63
2023-05-19T05:12:02.120Z,80.83
2023-05-19T05:12:34.583Z,80.93
2023-05-19T05:13:07.059Z,80.63
2023-05-19T05:13:39.520Z,80.28
2023-05-19T05:14:11.979Z,80.18
2023-05-19T05:14:44.559Z,80.28
2023-05-19T05:15:17.017Z,80.49
2023-05-19T05:15:49.504Z,80.69
2023-05-19T05:16:21.987Z,80.58
2023-05-19T05:16:54.507Z,80.28
2023-05-19T05:17:26.921Z,79.97
2023-05-19T05:17:59.352Z,79.42
2023-05-19T05:18:31.775Z,79.22
2023-05-19T05:19:04.245Z,79.11
2023-05-19T05:19:36.674Z,79.01
2023-05-19T05:20:09.128Z,79.11
2023-05-19T05:20:41.569Z,79.18
2023-05-19T05:21:14.013Z,78.97
2023-05-19T05:21:46.424Z,78.67
2023-05-19T05:22:18.882Z,78.36
2023-05-19T05:22:51.320Z,78.16
2023-05-19T05:23:23.830Z,78.05
2023-05-19T05:23:56.263Z,77.91
2023-05-19T05:24:28.701Z,77.81
2023-05-19T05:25:01.134Z,77.81
2023-05-19T05:25:33.792Z,77.71
2023-05-19T05:26:06.022Z,77.50
2023-05-19T05:26:38.483Z,77.40
2023-05-19T05:27:10.905Z,77.26
2023-05-19T05:27:43.345Z,76.34
2023-05-19T05:28:15.794Z,76.34
2023-05-19T05:28:48.244Z,76.24
2023-05-19T05:29:20.696Z,76.03
2023-05-19T05:29:53.125Z,75.99
2023-05-19T05:30:25.536Z,75.99
2023-05-19T05:30:57.957Z,75.79
2023-05-19T05:31:30.420Z,75.79
2023-05-19T05:32:02.871Z,75.89
2023-05-19T05:32:35.431Z,75.99
2023-05-19T05:33:07.830Z,75.96
2023-05-19T05:33:40.242Z,75.96
2023-05-19T05:34:12.651Z,75.86
2023-05-19T05:34:45.109Z,75.55
2023-05-19T05:35:17.562Z,75.65
2023-05-19T05:35:49.993Z,75.86
2023-05-19T05:36:22.432Z,75.82
2023-05-19T05:36:54.826Z,75.42
2023-05-19T05:37:27.291Z,75.01
2023-05-19T05:37:59.738Z,74.90
2023-05-19T05:38:32.178Z,74.97
2023-05-19T05:39:04.672Z,75.17
2023-05-19T05:39:37.129Z,75.07
2023-05-19T05:40:09.564Z,74.66
2023-05-19T05:40:41.978Z,73.85
2023-05-19T05:41:14.408Z,73.61
2023-05-19T05:41:46.898Z,73.50
2023-05-19T05:42:19.363Z,73.50
2023-05-19T05:42:51.810Z,73.30
2023-05-19T05:43:24.236Z,73.27
2023-05-19T05:43:56.683Z,73.27
2023-05-19T05:44:29.124Z,73.27
2023-05-19T05:45:01.538Z,73.06
2023-05-19T05:45:34.216Z,73.03
2023-05-19T05:46:06.441Z,71.91
2023-05-19T05:46:38.863Z,71.59
2023-05-19T05:47:11.325Z,71.56
2023-05-19T05:47:43.797Z,70.85
2023-05-19T05:48:16.274Z,70.40
2023-05-19T05:48:48.680Z,70.10
2023-05-19T05:49:21.104Z,69.59
2023-05-19T05:49:53.698Z,69.46
2023-05-19T05:50:26.031Z,68.51
2023-05-19T05:50:58.479Z,67.90
2023-05-19T05:51:30.902Z,67.55
2023-05-19T05:52:06.174Z,66.61
2023-05-19T05:52:35.810Z,66.68
2023-05-19T05:53:08.236Z,65.66
2023-05-19T05:53:40.672Z,64.51
2023-05-19T05:54:13.108Z,63.67
2023-05-19T05:54:45.567Z,63.13
2023-05-19T05:55:17.992Z,62.70
2023-05-19T05:55:50.448Z,61.65
2023-05-19T05:56:22.886Z,60.91
2023-05-19T05:56:55.340Z,59.97
2023-05-19T05:57:27.801Z,59.00
2023-05-19T05:58:00.288Z,59.07
2023-05-19T05:58:32.786Z,58.84
2023-05-19T05:59:05.253Z,58.41
2023-05-19T05:59:37.699Z,56.86
2023-05-19T06:00:10.137Z,55.93
2023-05-19T06:00:42.625Z,56.00
2023-05-19T06:01:15.083Z,55.77
2023-05-19T06:01:47.520Z,55.14
2023-05-19T06:02:20.005Z,54.00
2023-05-19T06:02:52.504Z,53.20
2023-05-19T06:03:24.951Z,52.47
2023-05-19T06:03:57.266Z,52.34
2023-05-19T06:04:29.720Z,52.04
2023-05-19T06:05:02.181Z,52.62
2023-05-19T06:05:34.663Z,51.08
2023-05-19T06:06:07.101Z,51.16
2023-05-19T06:06:39.560Z,50.13
2023-05-19T06:07:12.027Z,49.73
2023-05-19T06:07:44.520Z,49.60
2023-05-19T06:08:17.246Z,49.40
2023-05-19T06:08:49.789Z,48.49
2023-05-19T06:09:22.281Z,49.27
2023-05-19T06:09:54.767Z,49.07
2023-05-19T06:10:27.231Z,48.55
2023-05-19T06:10:59.667Z,47.94
2023-05-19T06:11:32.139Z,47.36
2023-05-19T06:12:04.602Z,47.69
2023-05-19T06:12:37.047Z,48.41
2023-05-19T06:13:09.521Z,48.64
2023-05-19T06:13:42.008Z,49.07
2023-05-19T06:14:14.412Z,49.59
2023-05-19T06:14:46.816Z,50.20
2023-05-19T06:15:19.294Z,50.68
2023-05-19T06:15:51.774Z,50.85
2023-05-19T06:16:24.177Z,50.53
2023-05-19T06:16:56.630Z,48.90
2023-05-19T06:17:29.123Z,48.57
2023-05-19T06:18:01.548Z,48.05
2023-05-19T06:18:33.921Z,47.34
2023-05-19T06:19:06.459Z,47.54
2023-05-19T06:19:38.825Z,47.64
2023-05-19T06:20:11.342Z,48.12
2023-05-19T06:20:43.769Z,47.22
2023-05-19T06:21:16.215Z,46.72
2023-05-19T06:21:48.661Z,46.49
2023-05-19T06:22:21.115Z,46.49
2023-05-19T06:22:53.573Z,46.07
2023-05-19T06:23:26.013Z,45.87
2023-05-19T06:23:58.547Z,46.07
2023-05-19T06:24:31.043Z,46.45
2023-05-19T06:25:03.622Z,45.83
2023-05-19T06:25:36.048Z,45.40
2023-05-19T06:26:08.517Z,45.40
2023-05-19T06:26:40.955Z,44.48
2023-05-19T06:27:13.392Z,43.68
2023-05-19T06:27:45.859Z,43.46
2023-05-19T06:28:18.359Z,43.76
2023-05-19T06:28:50.809Z,43.55
2023-05-19T06:29:23.256Z,43.05
2023-05-19T06:29:55.729Z,43.43
2023-05-19T06:30:28.195Z,42.85
2023-05-19T06:31:00.728Z,43.04
2023-05-19T06:31:33.227Z,42.33
2023-05-19T06:32:05.593Z,43.33
2023-05-19T06:32:38.224Z,43.43
2023-05-19T06:33:10.662Z,43.12
2023-05-19T06:33:43.104Z,42.79
2023-05-19T06:34:15.691Z,42.19
2023-05-19T06:34:48.260Z,42.60
2023-05-19T06:35:20.737Z,42.27
2023-05-19T06:35:53.326Z,41.47
2023-05-19T06:36:25.757Z,41.67
2023-05-19T06:36:58.203Z,41.97
2023-05-19T06:37:30.628Z,41.66
2023-05-19T06:38:03.080Z,41.75
2023-05-19T06:38:35.553Z,40.73
2023-05-19T06:39:08.005Z,40.04
2023-05-19T06:39:40.414Z,40.04
2023-05-19T06:40:12.864Z,40.14
2023-05-19T06:40:45.326Z,40.44
2023-05-19T06:41:17.782Z,40.53
2023-05-19T06:41:50.229Z,39.94
2023-05-19T06:42:22.777Z,40.23
2023-05-19T06:42:55.212Z,40.14
2023-05-19T06:43:27.672Z,40.53
2023-05-19T06:44:00.119Z,40.44
2023-05-19T06:44:32.586Z,39.74
2023-05-19T06:45:05.047Z,40.14
2023-05-19T06:45:37.479Z,40.12
2023-05-19T06:46:09.923Z,40.01
2023-05-19T06:46:42.470Z,39.62
2023-05-19T06:47:14.988Z,40.10
2023-05-19T06:47:47.404Z,39.40
2023-05-19T06:48:19.825Z,39.72
2023-05-19T06:48:52.351Z,40.12
2023-05-19T06:49:24.800Z,40.01
2023-05-19T06:49:57.729Z,40.32
2023-05-19T06:50:30.234Z,40.59
2023-05-19T06:51:02.594Z,39.70
2023-05-19T06:51:35.042Z,40.40
2023-05-19T06:52:07.499Z,40.28
2023-05-19T06:52:39.975Z,40.06
2023-05-19T06:53:12.464Z,39.56
2023-05-19T06:53:44.953Z,39.14
2023-05-19T06:54:17.403Z,39.34
2023-05-19T06:54:49.821Z,39.32
2023-05-19T06:55:22.274Z,39.50
2023-05-19T06:55:59.366Z,39.69
2023-05-19T06:56:27.361Z,39.47
2023-05-19T06:56:59.810Z,38.75
2023-05-19T06:57:32.275Z,38.24
2023-05-19T06:58:04.735Z,38.42